createdAt,value
2017-07-24T00:01:46.797Z,83.40
2017-07-24T00:04:14.374Z,83.40
2017-07-24T00:06:41.914Z,83.40
2017-07-24T00:09:10.378Z,83.40
2017-07-24T00:11:37.910Z,83.20
2017-07-24T00:14:05.633Z,83.30
2017-07-24T00:16:33.173Z,83.30
2017-07-24T00:19:00.704Z,83.30
2017-07-24T00:21:28.345Z,83.20
2017-07-24T00:23:55.922Z,83.00
2017-07-24T00:26:23.453Z,83.00
2017-07-24T00:28:51.027Z,82.90
2017-07-24T00:31:18.625Z,82.90
2017-07-24T00:33:46.161Z,82.90
2017-07-24T00:36:13.938Z,82.80
2017-07-24T00:38:41.591Z,82.90
2017-07-24T00:41:09.125Z,83.00
2017-07-24T00:43:36.696Z,83.10
2017-07-24T00:46:04.230Z,83.10
2017-07-24T00:48:31.811Z,83.10
2017-07-24T00:50:59.346Z,83.20
2017-07-24T00:53:27.361Z,83.30
2017-07-24T00:55:54.897Z,83.40
2017-07-24T00:58:22.429Z,83.40
2017-07-24T01:00:50.085Z,83.50
2017-07-24T01:03:18.385Z,83.70
2017-07-24T01:05:45.961Z,83.70
2017-07-24T01:08:13.545Z,83.70
2017-07-24T01:10:41.080Z,83.80
2017-07-24T01:13:08.864Z,83.80
2017-07-24T01:15:36.440Z,83.90
2017-07-24T01:18:04.009Z,83.80
2017-07-24T01:20:31.542Z,83.80
2017-07-24T01:22:59.120Z,83.80
2017-07-24T01:25:26.845Z,83.80
2017-07-24T01:27:54.373Z,83.70
2017-07-24T01:30:21.906Z,83.60
2017-07-24T01:32:49.963Z,83.60
2017-07-24T01:35:17.494Z,83.60
2017-07-24T01:37:45.233Z,83.50
2017-07-24T01:40:13.535Z,83.70
2017-07-24T01:42:41.114Z,83.60
2017-07-24T01:45:08.658Z,83.80
2017-07-24T01:47:36.241Z,83.90
2017-07-24T01:50:03.774Z,84.00
2017-07-24T01:52:31.417Z,84.10
2017-07-24T01:54:59.718Z,84.00
2017-07-24T01:57:27.296Z,83.90
2017-07-24T01:59:54.832Z,83.90
2017-07-24T02:02:22.417Z,84.00
2017-07-24T02:04:49.997Z,84.00
2017-07-24T02:07:17.531Z,84.00
2017-07-24T02:09:45.414Z,84.10
2017-07-24T02:12:12.949Z,84.10
2017-07-24T02:14:40.653Z,84.10
2017-07-24T02:17:08.185Z,84.20
2017-07-24T02:19:35.756Z,84.10
2017-07-24T02:22:03.284Z,84.10
2017-07-24T02:24:30.858Z,84.10
2017-07-24T02:26:58.399Z,84.20
2017-07-24T02:29:26.041Z,84.30
2017-07-24T02:31:54.341Z,84.40
2017-07-24T02:34:21.928Z,84.40
2017-07-24T02:36:49.638Z,84.50
2017-07-24T02:39:17.933Z,85.10
2017-07-24T02:41:45.511Z,84.70
2017-07-24T02:44:13.520Z,84.80
2017-07-24T02:46:41.452Z,84.80
2017-07-24T02:49:08.993Z,84.90
2017-07-24T02:51:36.536Z,84.90
2017-07-24T02:54:04.892Z,85.00
2017-07-24T02:56:32.422Z,85.00
2017-07-24T02:58:59.996Z,85.00
2017-07-24T03:01:27.528Z,85.00
2017-07-24T03:03:55.146Z,85.10
2017-07-24T03:06:22.682Z,85.10
2017-07-24T03:08:50.249Z,85.30
2017-07-24T03:11:17.782Z,85.40
2017-07-24T03:13:45.361Z,85.40
2017-07-24T03:16:12.903Z,85.40
2017-07-24T03:18:40.786Z,85.50
2017-07-24T03:21:08.330Z,85.50
2017-07-24T03:23:35.912Z,85.50
2017-07-24T03:26:03.448Z,85.40
2017-07-24T03:31:04.402Z,85.60
2017-07-24T03:33:32.097Z,85.70
2017-07-24T03:35:59.670Z,85.70
2017-07-24T03:38:27.505Z,85.70
2017-07-24T03:40:55.076Z,85.80
2017-07-24T03:43:22.656Z,85.70
2017-07-24T03:45:50.337Z,85.70
2017-07-24T03:48:17.874Z,85.60
2017-07-24T03:50:45.410Z,85.80
2017-07-24T03:53:13.289Z,85.80
2017-07-24T03:55:40.816Z,86.00
2017-07-24T03:58:08.387Z,86.00
2017-07-24T04:00:35.925Z,86.10
2017-07-24T04:03:03.841Z,86.10
2017-07-24T04:05:31.376Z,86.10
2017-07-24T04:08:00.496Z,86.00
2017-07-24T04:10:28.030Z,86.00
2017-07-24T04:12:55.758Z,86.00
2017-07-24T04:15:24.068Z,86.20
2017-07-24T04:17:51.597Z,86.20
2017-07-24T04:20:19.933Z,86.10
2017-07-24T04:22:47.529Z,86.10
2017-07-24T04:25:15.945Z,86.30
2017-07-24T04:27:43.485Z,86.30
2017-07-24T04:30:11.067Z,86.20
2017-07-24T04:35:12.522Z,86.40
2017-07-24T04:37:47.064Z,86.20
2017-07-24T04:40:14.608Z,86.20
2017-07-24T04:42:42.373Z,86.20
2017-07-24T04:45:09.950Z,86.30
2017-07-24T04:47:37.532Z,86.30
2017-07-24T04:50:05.108Z,86.40
2017-07-24T04:52:32.636Z,86.30
2017-07-24T04:55:00.210Z,86.30
2017-07-24T04:57:27.741Z,86.30
2017-07-24T04:59:55.454Z,86.30
2017-07-24T05:02:23.141Z,86.40
2017-07-24T05:04:51.443Z,86.40
2017-07-24T05:07:18.980Z,86.20
2017-07-24T05:09:47.395Z,86.50
2017-07-24T05:12:14.934Z,86.40
2017-07-24T05:14:42.516Z,86.40
2017-07-24T05:17:10.059Z,86.50
2017-07-24T05:19:37.753Z,86.60
2017-07-24T05:22:05.286Z,86.70
2017-07-24T05:24:32.865Z,86.70
2017-07-24T05:27:00.396Z,86.70
2017-07-24T05:29:27.970Z,86.70
2017-07-24T05:31:55.518Z,86.60
2017-07-24T05:34:23.159Z,86.60
2017-07-24T05:36:50.701Z,86.50
2017-07-24T05:39:24.240Z,86.50
2017-07-24T05:41:51.788Z,86.40
2017-07-24T05:44:19.431Z,86.50
2017-07-24T05:46:46.964Z,86.50
2017-07-24T05:49:14.642Z,86.60
2017-07-24T05:51:42.219Z,86.50
2017-07-24T05:54:10.573Z,86.50
2017-07-24T05:56:38.108Z,86.50
2017-07-24T05:59:05.681Z,86.70
2017-07-24T06:01:33.426Z,86.60
2017-07-24T06:04:01.073Z,86.70
2017-07-24T06:06:28.610Z,86.70
2017-07-24T06:08:57.061Z,86.50
2017-07-24T06:11:24.597Z,86.50
2017-07-24T06:13:52.174Z,86.40
2017-07-24T06:16:19.707Z,86.30
2017-07-24T06:18:47.289Z,86.20
2017-07-24T06:21:14.825Z,86.20
2017-07-24T06:23:42.451Z,86.30
2017-07-24T06:26:10.756Z,86.50
2017-07-24T06:28:38.330Z,86.40
2017-07-24T06:31:05.873Z,86.40
2017-07-24T06:33:33.451Z,86.10
2017-07-24T06:36:00.984Z,86.20
2017-07-24T06:38:28.745Z,86.20
2017-07-24T06:40:57.089Z,86.30
2017-07-24T06:43:24.632Z,86.20
2017-07-24T06:45:53.521Z,86.30
2017-07-24T06:48:21.067Z,86.40
2017-07-24T06:50:48.640Z,86.40
2017-07-24T06:53:16.237Z,86.50
2017-07-24T06:55:43.961Z,86.60
2017-07-24T06:58:11.497Z,86.70
2017-07-24T07:00:39.077Z,86.80
2017-07-24T07:03:06.612Z,87.00
2017-07-24T07:05:40.457Z,87.20
2017-07-24T07:08:08.002Z,87.10
2017-07-24T07:10:35.782Z,87.10
2017-07-24T07:13:03.317Z,87.10
2017-07-24T07:15:30.901Z,86.90
2017-07-24T07:17:58.436Z,86.90
2017-07-24T07:20:26.013Z,86.80
2017-07-24T07:22:53.557Z,86.90
2017-07-24T07:25:21.132Z,86.70
2017-07-24T07:27:48.673Z,86.70
2017-07-24T07:30:16.577Z,86.70
2017-07-24T07:32:44.120Z,86.90
2017-07-24T07:35:11.692Z,87.00
2017-07-24T07:37:39.626Z,87.20
2017-07-24T07:40:07.210Z,87.20
2017-07-24T07:42:34.784Z,87.30
2017-07-24T07:45:02.357Z,87.10
2017-07-24T07:47:29.889Z,86.70
2017-07-24T07:49:57.662Z,86.60
2017-07-24T07:52:25.197Z,86.80
2017-07-24T07:54:52.770Z,86.80
2017-07-24T07:57:20.302Z,86.80
2017-07-24T07:59:48.021Z,86.60
2017-07-24T08:02:15.553Z,86.70
2017-07-24T08:04:43.121Z,86.60
2017-07-24T08:07:10.653Z,86.30
2017-07-24T08:09:38.449Z,86.10
2017-07-24T08:12:06.026Z,85.90
2017-07-24T08:14:33.566Z,85.80
2017-07-24T08:17:01.145Z,85.40
2017-07-24T08:19:28.686Z,85.20
2017-07-24T08:21:56.256Z,85.00
2017-07-24T08:24:23.785Z,85.00
2017-07-24T08:26:51.417Z,85.10
2017-07-24T08:29:19.717Z,84.90
2017-07-24T08:31:47.437Z,84.70
2017-07-24T08:34:14.979Z,84.50
2017-07-24T08:36:42.549Z,84.30
2017-07-24T08:39:10.085Z,84.50
2017-07-24T08:41:37.813Z,84.30
2017-07-24T08:44:06.112Z,84.60
2017-07-24T08:46:33.686Z,84.40
2017-07-24T08:49:01.222Z,84.50
2017-07-24T08:51:28.796Z,84.80
2017-07-24T08:53:56.332Z,84.50
2017-07-24T08:56:24.815Z,83.70
2017-07-24T08:58:52.359Z,83.60
2017-07-24T09:01:20.880Z,83.30
2017-07-24T09:03:48.408Z,83.20
2017-07-24T09:06:16.745Z,83.00
2017-07-24T09:08:44.290Z,82.90
2017-07-24T09:11:12.009Z,82.90
2017-07-24T09:13:40.313Z,82.40
2017-07-24T09:16:07.890Z,82.40
2017-07-24T09:18:35.425Z,82.20
2017-07-24T09:21:02.998Z,82.30
2017-07-24T09:23:30.529Z,81.80
2017-07-24T09:25:58.869Z,80.80
2017-07-24T09:28:26.410Z,80.60
2017-07-24T09:30:59.005Z,80.60
2017-07-24T09:33:26.589Z,79.70
2017-07-24T09:35:54.897Z,78.80
2017-07-24T09:38:22.562Z,79.30
2017-07-24T09:40:50.113Z,78.80
2017-07-24T09:43:18.034Z,78.20
2017-07-24T09:45:45.564Z,77.30
2017-07-24T09:48:13.106Z,77.00
2017-07-24T09:50:40.838Z,76.80
2017-07-24T09:53:08.419Z,76.60
2017-07-24T09:55:36.727Z,76.10
2017-07-24T09:58:04.319Z,76.00
2017-07-24T10:00:31.898Z,75.70
2017-07-24T10:02:59.629Z,75.80
2017-07-24T10:05:27.165Z,75.90
2017-07-24T10:07:54.932Z,75.30
2017-07-24T10:10:22.483Z,74.90
2017-07-24T10:12:50.061Z,74.10
2017-07-24T10:15:17.601Z,73.80
2017-07-24T10:17:45.181Z,73.50
2017-07-24T10:20:12.730Z,73.30
2017-07-24T10:22:40.536Z,72.80
2017-07-24T10:25:08.101Z,72.70
2017-07-24T10:27:35.653Z,72.80
2017-07-24T10:30:03.233Z,73.30
2017-07-24T10:32:30.778Z,72.90
2017-07-24T10:34:58.365Z,72.40
2017-07-24T10:37:25.914Z,71.60
2017-07-24T10:39:54.169Z,71.80
2017-07-24T10:42:21.713Z,71.50
2017-07-24T10:44:49.401Z,70.70
2017-07-24T10:47:16.946Z,69.60
2017-07-24T10:49:44.497Z,70.00
2017-07-24T10:52:12.089Z,69.90
2017-07-24T10:54:39.761Z,69.70
2017-07-24T10:57:08.189Z,70.60
2017-07-24T10:59:35.724Z,70.60
2017-07-24T11:02:03.456Z,71.20
2017-07-24T11:04:31.039Z,71.40
2017-07-24T11:06:58.591Z,71.50
2017-07-24T11:09:26.946Z,73.40
2017-07-24T11:11:54.714Z,73.40
2017-07-24T11:14:22.265Z,74.10
2017-07-24T11:16:49.807Z,74.90
2017-07-24T11:19:17.390Z,75.70
2017-07-24T11:21:44.934Z,76.40
2017-07-24T11:24:12.517Z,77.00
2017-07-24T11:26:40.072Z,77.50
2017-07-24T11:29:07.836Z,77.50
2017-07-24T11:31:35.385Z,77.40
2017-07-24T11:34:03.375Z,77.70
2017-07-24T11:36:30.937Z,78.20
2017-07-24T11:38:58.648Z,78.20
2017-07-24T11:41:26.199Z,78.20
2017-07-24T11:43:53.780Z,78.00
2017-07-24T11:46:21.437Z,77.90
2017-07-24T11:48:48.992Z,77.60
2017-07-24T11:51:16.577Z,77.70
2017-07-24T11:53:44.117Z,78.00
2017-07-24T11:56:11.708Z,78.20
2017-07-24T11:58:45.901Z,78.40
2017-07-24T12:01:13.453Z,78.60
2017-07-24T12:03:41.113Z,78.30
2017-07-24T12:06:08.648Z,77.90
2017-07-24T12:08:37.001Z,77.20
2017-07-24T12:11:04.541Z,77.10
2017-07-24T12:13:32.274Z,75.50
2017-07-24T12:15:59.818Z,74.70
2017-07-24T12:18:27.362Z,75.00
2017-07-24T12:20:55.862Z,73.30
2017-07-24T12:23:23.397Z,73.30
2017-07-24T12:25:51.019Z,72.70
2017-07-24T12:28:18.569Z,72.30
2017-07-24T12:30:46.135Z,71.70
2017-07-24T12:33:13.857Z,71.20
2017-07-24T12:35:41.454Z,71.10
2017-07-24T12:38:09.014Z,70.70
2017-07-24T12:40:36.790Z,70.20
2017-07-24T12:43:04.323Z,69.60
2017-07-24T12:45:32.374Z,69.50
2017-07-24T12:48:00.702Z,68.70
2017-07-24T12:50:28.236Z,68.60
2017-07-24T12:52:55.923Z,68.10
2017-07-24T12:55:23.458Z,67.40
2017-07-24T12:57:51.084Z,67.00
2017-07-24T13:00:19.950Z,67.30
2017-07-24T13:02:47.490Z,66.20
2017-07-24T13:05:15.122Z,65.60
2017-07-24T13:07:42.649Z,66.50
2017-07-24T13:10:10.257Z,66.90
2017-07-24T13:12:37.793Z,66.90
2017-07-24T13:15:05.560Z,66.80
2017-07-24T13:17:33.089Z,66.60
2017-07-24T13:20:00.669Z,66.60
2017-07-24T13:22:28.201Z,66.90
2017-07-24T13:24:55.777Z,66.80
2017-07-24T13:27:23.353Z,66.40
2017-07-24T13:29:51.653Z,66.20
2017-07-24T13:32:19.545Z,66.20
2017-07-24T13:34:47.094Z,66.20
2017-07-24T13:37:14.676Z,66.40
2017-07-24T13:39:42.285Z,66.60
2017-07-24T13:42:09.892Z,66.80
2017-07-24T13:44:37.497Z,67.50
2017-07-24T13:47:05.094Z,67.90
2017-07-24T13:49:32.864Z,68.80
2017-07-24T13:52:00.463Z,69.90
2017-07-24T13:54:28.066Z,70.30
2017-07-24T13:57:00.694Z,70.50
2017-07-24T13:59:28.656Z,71.20
2017-07-24T14:01:56.241Z,71.60
2017-07-24T14:04:23.793Z,71.80
2017-07-24T14:06:51.765Z,71.50
2017-07-24T14:09:19.322Z,71.50
2017-07-24T14:11:46.954Z,71.10
2017-07-24T14:14:14.537Z,71.30
2017-07-24T14:16:42.125Z,71.00
2017-07-24T14:19:09.680Z,71.10
2017-07-24T14:21:37.272Z,71.40
2017-07-24T14:24:04.820Z,71.40
2017-07-24T14:26:32.554Z,71.60
2017-07-24T14:29:00.122Z,70.90
2017-07-24T14:31:27.709Z,70.60
2017-07-24T14:33:56.021Z,70.50
2017-07-24T14:36:23.708Z,70.50
2017-07-24T14:38:51.296Z,70.10
2017-07-24T14:41:19.258Z,69.90
2017-07-24T14:43:46.913Z,69.80
2017-07-24T14:46:14.501Z,70.10
2017-07-24T14:48:42.062Z,69.80
2017-07-24T14:51:09.690Z,70.10
2017-07-24T14:53:37.290Z,70.20
2017-07-24T14:56:04.868Z,69.70
2017-07-24T14:58:38.975Z,69.10
2017-07-24T15:01:06.874Z,69.30
2017-07-24T15:03:34.415Z,69.10
2017-07-24T15:06:01.957Z,69.20
2017-07-24T15:11:02.257Z,68.70
2017-07-24T15:13:29.798Z,68.60
2017-07-24T15:15:57.544Z,68.50
2017-07-24T15:18:25.085Z,68.60
2017-07-24T15:20:52.630Z,68.50
2017-07-24T15:23:20.221Z,68.10
2017-07-24T15:25:48.510Z,67.90
2017-07-24T15:28:16.040Z,68.00
2017-07-24T15:30:43.577Z,67.80
2017-07-24T15:33:12.073Z,67.40
2017-07-24T15:35:40.377Z,67.20
2017-07-24T15:38:08.066Z,67.10
2017-07-24T15:40:35.689Z,67.30
2017-07-24T15:43:08.113Z,67.40
2017-07-24T15:45:35.722Z,67.30
2017-07-24T15:48:03.470Z,67.60
2017-07-24T15:50:31.780Z,68.10
2017-07-24T15:53:04.181Z,68.00
2017-07-24T15:55:31.721Z,68.70
2017-07-24T15:57:59.307Z,69.40
2017-07-24T16:00:26.848Z,69.20
2017-07-24T16:02:54.569Z,68.60
2017-07-24T16:05:22.874Z,68.00
2017-07-24T16:07:50.452Z,67.90
2017-07-24T16:10:18.044Z,67.20
2017-07-24T16:12:45.788Z,66.30
2017-07-24T16:15:13.328Z,66.10
2017-07-24T16:17:40.973Z,65.90
2017-07-24T16:20:08.518Z,65.70
2017-07-24T16:22:36.104Z,65.80
2017-07-24T16:25:03.677Z,65.80
2017-07-24T16:27:31.217Z,65.30
2017-07-24T16:29:58.802Z,64.60
2017-07-24T16:32:26.685Z,64.00
2017-07-24T16:34:54.221Z,63.00
2017-07-24T16:37:21.804Z,61.80
2017-07-24T16:39:49.337Z,60.60
2017-07-24T16:42:17.041Z,59.60
2017-07-24T16:44:44.616Z,58.80
2017-07-24T16:47:12.189Z,58.10
2017-07-24T16:49:40.498Z,57.00
2017-07-24T16:52:08.404Z,57.00
2017-07-24T16:54:35.942Z,56.90
2017-07-24T16:57:09.877Z,57.10
2017-07-24T16:59:37.429Z,56.90
2017-07-24T17:02:04.970Z,57.20
2017-07-24T17:04:32.610Z,57.30
2017-07-24T17:07:00.673Z,57.30
2017-07-24T17:09:28.225Z,57.50
2017-07-24T17:11:55.766Z,58.00
2017-07-24T17:14:24.301Z,59.20
2017-07-24T17:16:51.849Z,59.10
2017-07-24T17:19:19.434Z,58.90
2017-07-24T17:21:47.023Z,59.00
2017-07-24T17:24:14.766Z,59.30
2017-07-24T17:26:42.317Z,59.50
2017-07-24T17:29:09.868Z,60.00
2017-07-24T17:31:37.654Z,60.50
2017-07-24T17:34:07.749Z,60.90
2017-07-24T17:36:35.337Z,61.10
2017-07-24T17:39:04.229Z,61.40
2017-07-24T17:41:31.997Z,61.80
2017-07-24T17:43:59.590Z,62.00
2017-07-24T17:46:27.897Z,62.40
2017-07-24T17:48:55.453Z,62.40
2017-07-24T17:51:23.162Z,63.10
2017-07-24T17:53:51.289Z,63.10
2017-07-24T17:56:18.865Z,63.60
2017-07-24T17:58:46.401Z,63.80
2017-07-24T18:01:14.125Z,64.40
2017-07-24T18:03:41.669Z,64.80
2017-07-24T18:06:09.214Z,65.20
2017-07-24T18:08:37.509Z,65.40
2017-07-24T18:11:05.045Z,65.20
2017-07-24T18:13:32.584Z,65.30
2017-07-24T18:16:00.174Z,65.60
2017-07-24T18:18:27.756Z,65.90
2017-07-24T18:20:55.298Z,66.20
2017-07-24T18:23:23.151Z,66.50
2017-07-24T18:25:50.703Z,66.40
2017-07-24T18:28:18.241Z,65.80
2017-07-24T18:30:48.023Z,65.80
2017-07-24T18:33:15.629Z,65.50
2017-07-24T18:35:43.214Z,65.40
2017-07-24T18:38:10.753Z,65.50
2017-07-24T18:40:38.364Z,65.80
2017-07-24T18:43:06.631Z,66.20
2017-07-24T18:45:34.166Z,66.40
2017-07-24T18:48:01.710Z,66.40
2017-07-24T18:50:29.665Z,66.80
2017-07-24T18:52:57.213Z,67.30
2017-07-24T18:55:25.520Z,67.90
2017-07-24T18:57:56.894Z,67.80
2017-07-24T19:00:24.433Z,68.20
2017-07-24T19:02:52.013Z,68.30
2017-07-24T19:05:19.548Z,68.60
2017-07-24T19:07:52.166Z,68.70
2017-07-24T19:10:19.971Z,69.00
2017-07-24T19:12:48.382Z,69.50
2017-07-24T19:15:15.925Z,69.50
2017-07-24T19:17:43.508Z,69.70
2017-07-24T19:20:11.042Z,70.00
2017-07-24T19:22:39.186Z,70.40
2017-07-24T19:25:06.722Z,70.60
2017-07-24T19:27:34.254Z,70.80
2017-07-24T19:30:02.251Z,71.00
2017-07-24T19:32:29.789Z,71.20
2017-07-24T19:34:57.324Z,71.60
2017-07-24T19:37:24.896Z,71.80
2017-07-24T19:39:52.794Z,72.10
2017-07-24T19:42:20.613Z,72.10
2017-07-24T19:44:48.951Z,72.50
2017-07-24T19:47:16.530Z,72.40
2017-07-24T19:49:44.105Z,72.70
2017-07-24T19:52:11.933Z,72.60
2017-07-24T19:54:39.474Z,72.80
2017-07-24T19:57:07.017Z,72.90
2017-07-24T19:59:34.849Z,72.90
2017-07-24T20:02:03.145Z,73.40
2017-07-24T20:04:31.645Z,73.60
2017-07-24T20:07:00.081Z,73.60
2017-07-24T20:09:27.618Z,73.80
2017-07-24T20:11:55.152Z,74.10
2017-07-24T20:14:22.717Z,74.30
2017-07-24T20:16:50.261Z,74.50
2017-07-24T20:19:17.900Z,74.60
2017-07-24T20:21:46.277Z,74.90
2017-07-24T20:24:15.126Z,75.00
2017-07-24T20:26:42.659Z,75.00
2017-07-24T20:29:10.189Z,75.20
2017-07-24T20:31:37.756Z,75.40
2017-07-24T20:34:05.300Z,75.60
2017-07-24T20:36:33.132Z,75.60
2017-07-24T20:39:00.729Z,75.80
2017-07-24T20:41:29.372Z,76.20
2017-07-24T20:43:56.910Z,75.90
2017-07-24T20:46:24.487Z,76.20
2017-07-24T20:48:52.026Z,76.30
2017-07-24T20:51:19.766Z,76.50
2017-07-24T20:53:48.073Z,76.70
2017-07-24T20:56:15.697Z,76.70
2017-07-24T20:58:44.350Z,77.50
2017-07-24T21:01:11.926Z,76.90
2017-07-24T21:03:39.509Z,77.10
2017-07-24T21:06:07.922Z,77.50
2017-07-24T21:08:35.497Z,77.50
2017-07-24T21:11:03.075Z,77.70
2017-07-24T21:13:35.858Z,78.00
2017-07-24T21:16:03.406Z,78.20
2017-07-24T21:18:30.944Z,78.50
2017-07-24T21:20:58.518Z,78.80
2017-07-24T21:23:26.099Z,78.90
2017-07-24T21:25:53.640Z,79.10
2017-07-24T21:28:21.222Z,79.30
2017-07-24T21:30:48.766Z,79.50
2017-07-24T21:33:16.588Z,79.60
2017-07-24T21:35:44.128Z,79.80
2017-07-24T21:38:11.668Z,80.10
2017-07-24T21:40:39.250Z,80.30
2017-07-24T21:43:06.910Z,80.50
2017-07-24T21:45:40.589Z,80.70
2017-07-24T21:48:08.133Z,80.80
2017-07-24T21:50:36.213Z,80.90
2017-07-24T21:53:03.749Z,81.00
2017-07-24T21:55:31.294Z,81.10
2017-07-24T21:57:58.878Z,81.30
2017-07-24T22:00:26.461Z,81.50
2017-07-24T22:02:53.992Z,81.60
2017-07-24T22:05:21.577Z,81.70
2017-07-24T22:07:49.281Z,81.80
2017-07-24T22:10:17.638Z,82.20
2017-07-24T22:12:45.177Z,82.10
2017-07-24T22:15:13.141Z,82.30
2017-07-24T22:17:40.688Z,82.40
2017-07-24T22:20:08.221Z,82.50
2017-07-24T22:22:36.240Z,82.50
2017-07-24T22:25:03.777Z,82.40
2017-07-24T22:27:31.321Z,82.50
2017-07-24T22:29:59.084Z,82.50
2017-07-24T22:32:26.625Z,82.60
2017-07-24T22:34:54.928Z,82.70
2017-07-24T22:37:22.509Z,82.60
2017-07-24T22:39:50.059Z,82.80
2017-07-24T22:42:19.464Z,82.70
2017-07-24T22:44:47.853Z,83.00
2017-07-24T22:47:15.536Z,83.00
2017-07-24T22:49:43.073Z,83.10
2017-07-24T22:52:10.669Z,83.30
2017-07-24T22:54:38.208Z,83.20
2017-07-24T22:57:05.787Z,83.30
2017-07-24T22:59:33.325Z,83.40
2017-07-24T23:02:02.597Z,83.70
2017-07-24T23:04:30.136Z,83.40
2017-07-24T23:06:58.666Z,83.50
2017-07-24T23:09:26.204Z,83.50
2017-07-24T23:11:53.781Z,83.40
2017-07-24T23:14:21.361Z,83.40
2017-07-24T23:16:48.897Z,83.40
2017-07-24T23:19:16.492Z,83.50
2017-07-24T23:21:44.024Z,83.50
2017-07-24T23:24:11.566Z,83.50
2017-07-24T23:26:39.292Z,83.60
2017-07-24T23:29:07.597Z,83.70
2017-07-24T23:31:35.129Z,83.60
2017-07-24T23:34:03.478Z,83.80
2017-07-24T23:36:31.019Z,83.70
2017-07-24T23:38:58.595Z,84.50
2017-07-24T23:41:26.129Z,83.90
2017-07-24T23:43:54.301Z,83.90
2017-07-24T23:46:21.843Z,83.90
2017-07-24T23:48:49.420Z,83.90
2017-07-24T23:51:17.015Z,83.90
2017-07-24T23:53:44.568Z,83.90
2017-07-24T23:56:12.274Z,84.10
2017-07-24T23:58:40.620Z,84.20
